KCMY/CMY METAR and TAF weather

Enter ICAO airport designator
Station Type Date Time Source
KCMY METAR 2019/08/23 17:35 UTC NOAA

KCMY 231735Z AUTO 08004KT 10SM BKN035 BKN042 OVC050 20/13 A3026 RMK AO2 T02000127


Station Type Date Time Source
KCMY Decoded METAR 2019/08/23 17:35 UTC NOAA

Station name not available
Aug 23, 2019 - 01:35 PM EDT / 2019.08.23 1735 UTC
Wind: from the E (080 degrees) at 5 MPH (4 KT):0
Visibility: 10 mile(s):0
Sky conditions: overcast
Temperature: 68.0 F (20.0 C)
Dew Point: 54.9 F (12.7 C)
Relative Humidity: 62%
Pressure (altimeter): 30.26 in. Hg (1024 hPa)
ob: KCMY 231735Z AUTO 08004KT 10SM BKN035 BKN042 OVC050 20/13 A3026 RMK AO2 T02000127
cycle: 17

Station Type Date Time Source
KCMY TAF UTC NOAA

Error!

Example: see airport list